Chisholm Hibbing Airport
KHIB : now visible

Airfield :











YOU CAN JOIN US ON...

 
LOGIN :

Register | Disclaimer

   EN    FR    IT 

 









Legend :    VFR   Marginal VFR   IFR   Intensive IFR   Very Intensive IFR
Visi :
Ceiling :
>= 8 km
>= 3000ft
5 to 8 km
1000 to 3000 ft
1500m to 5 km
500 to 1000 ft
800 to 1500m
200 to 500 ft
< 800m
< 200 ft
Symbols :   Thunderstorms  Fog  Heavy snow  Heavy precipitations  Wind > 20 kt






- Airport Elevation : 1354 ft
- IATA code : HIB


KHIB - Chisholm Hibbing

CURRENT METAR :
  • 041453Z AUTO VRB03KT 5SM HZ CLR 22/16 A3004 RMK AO2 SLP172 T02220161 50001

EXPIRED METARs :
  • 041353Z AUTO 17003KT 4SM HZ CLR 18/15 A3005 RMK AO2 SLP175 T01830150
  • 041253Z AUTO 00000KT 3SM BR CLR 16/14 A3004 RMK AO2 SLP174 T01560139

TAF KHIB
Valid from the 04 at 12:00 until the 05 at 12:00 UTC


041120Z 0412/0512 00000KT 1 1/2SM BR FEW045 SCT180
FM041300 VRB03KT 6SM FU BR FEW050 SCT250
FM041800 23009G17KT 6SM FU FEW060 SCT250
FM050000 20008KT 6SM FU FEW070 SCT250
KZMP FIR / North America



MET'MAP, your aeronautical weather chart ! - Copyright ORBIFLY December 2007 - Disclaimer

ORBIFLY MET'MAP TEAM :

Programming & Development : Alexandra Zaïnal
Concept & original design : Baudouin d'Aumeries
Assistance for programming : Marc-Olivier Méhu
Technical & hardware support : Manuel Goepfert

Contact : metmap@orbifly.com




SOURCES & CREDITS :

   NOAA       Earth
Advisory